Grand Forks Air Force Base
KRDR : now visible

Aeroporto :











RITROVATECI SU...

 
LOGIN :

Iscrizione | Disclaimer

   EN    FR    IT 

 









Sommario :    VFR   VFR Marginale   IFR   IFR Intensivo   IFR Molto Intensivo
Visibilità : 
Base nubi : 
>= 8 km
>= 3000ft
5 / 8 km
1000 / 3000 ft
1500m / 5 km
500 / 1000 ft
800 / 1500m
200 / 500 ft
< 800m
< 200 ft
Simboli :   Temporali  Nebbia  Neve Forte  Precipitazioni Forti  Vento > 20 kt






- Altitudine del aeroporto : 913 ft


KRDR - Grand Forks Air Force Base

ULTIMO METAR :
  • 150456Z AUTO 22003KT 10SM CLR M30/M34 A3007 RMK AO2 SLP221 T13051340

METARs OBSOLETI :
  • 150256Z AUTO 25003KT 10SM CLR M29/M33 A3009 RMK AO2 SLP229 T12941327 58000

TAF TAF KRDR
Valido dal 15 a 02 ore il 16 a 08 ore UTC


150200Z 1502/1608 VRB06KT 9999 SKC QNH3000INS
BECMG 1511/1512 17009KT 9999 BKN020 600205 QNH2991INS
TEMPO 1512/1516 8000 -SN
BECMG 1518/1519 19012KT 9999 SCT025 QNH2987INS TXM11/1600Z TNM32/1505Z



MetMap, La meteo Aeronautica in un colpo d'occhio ! - Copyright ORBIFLY Dicembre 2007 - Disclaimer

ORBIFLY MET'MAP TEAM :

Programmazione e sviluppo : Alexandra Zaïnal
Concezione : Baudouin d'Aumeries
Aiuto per la programmazione : Marc-Olivier Méhu
Supporto tecnico e logistico : Manuel Goepfert
Aiuto per la traduzione : Arnaldo La Scala

Contatto : metmap@orbifly.com




FONTI E CREDITI :

   NOAA       Earth
Advisory